Time;durP1;ratioP1;P1;durP2;ratioP2;P2;SDS_P1;SDS_P2;PMS_P1;PMS_P2;Temp;Humidity;BMP_temperature;BMP_pressure;BME280_temperature;BME280_humidity;BME280_pressure;Samples;Min_cycle;Max_cycle;Signal;HPM_P1;HPM_P2
2023/06/11 00:02:21;;;;;;;17.13;7.22;;;;;;;;;;5137296;27;20470;-69
2023/06/11 00:04:49;;;;;;;18.27;7.80;;;;;;;;;;5142272;27;20425;-69
2023/06/11 00:07:16;;;;;;;12.15;6.18;;;;;;;;;;5118245;27;20050;-69
2023/06/11 00:09:43;;;;;;;13.52;6.18;;;;;;;;;;5124557;27;20038;-69
2023/06/11 00:12:09;;;;;;;13.85;6.70;;;;;;;;;;5140567;27;20066;-69
2023/06/11 00:14:35;;;;;;;16.20;5.93;;;;;;;;;;5131940;27;20448;-69
2023/06/11 00:17:02;;;;;;;16.65;6.50;;;;;;;;;;5113360;28;20043;-69
2023/06/11 00:19:30;;;;;;;14.68;6.68;;;;;;;;;;5114221;28;20394;-69
2023/06/11 00:21:56;;;;;;;16.27;7.10;;;;;;;;;;5111458;27;21911;-69
2023/06/11 00:24:23;;;;;;;13.45;7.00;;;;;;;;;;5134528;27;20039;-69
2023/06/11 00:26:50;;;;;;;10.43;6.57;;;;;;;;;;5131517;27;20459;-69
2023/06/11 00:29:16;;;;;;;15.75;6.40;;;;;;;;;;5135192;27;20059;-69
2023/06/11 00:31:42;;;;;;;11.40;6.60;;;;;;;;;;5127922;27;20092;-69
2023/06/11 00:34:08;;;;;;;14.00;6.57;;;;;;;;;;5135869;27;20143;-69
2023/06/11 00:36:35;;;;;;;14.45;6.50;;;;;;;;;;5129233;28;20039;-69
2023/06/11 00:39:02;;;;;;;17.13;6.38;;;;;;;;;;5088382;28;20487;-69
2023/06/11 00:41:30;;;;;;;16.50;7.05;;;;;;;;;;5120276;27;20153;-69
2023/06/11 00:43:57;;;;;;;14.75;6.82;;;;;;;;;;5118790;27;20496;-69
2023/06/11 00:46:23;;;;;;;21.27;6.82;;;;;;;;;;5135985;27;20053;-69
2023/06/11 00:48:50;;;;;;;15.07;6.80;;;;;;;;;;5101010;27;20142;-69
2023/06/11 00:51:18;;;;;;;12.25;6.95;;;;;;;;;;5131352;27;20085;-69
2023/06/11 00:53:44;;;;;;;16.42;7.05;;;;;;;;;;5135111;27;20487;-69
2023/06/11 00:56:11;;;;;;;13.48;6.70;;;;;;;;;;5135405;27;20035;-69
2023/06/11 00:58:37;;;;;;;17.02;7.38;;;;;;;;;;5116480;27;20352;-69
2023/06/11 01:01:05;;;;;;;14.20;7.95;;;;;;;;;;5135996;27;20517;-69
2023/06/11 01:03:33;;;;;;;15.85;7.70;;;;;;;;;;5136070;27;20071;-69
2023/06/11 01:06:01;;;;;;;12.50;6.70;;;;;;;;;;5134145;27;20055;-69
2023/06/11 01:08:29;;;;;;;17.95;8.15;;;;;;;;;;5135841;27;20088;-69
2023/06/11 01:10:59;;;;;;;14.48;7.43;;;;;;;;;;5117328;27;20557;-69
2023/06/11 01:13:26;;;;;;;12.98;6.88;;;;;;;;;;5134435;27;20050;-69
2023/06/11 01:15:55;;;;;;;15.07;7.93;;;;;;;;;;5117716;27;20047;-69
2023/06/11 01:18:23;;;;;;;12.80;7.85;;;;;;;;;;5117648;27;20044;-69
2023/06/11 01:21:09;;;;;;;11.18;7.22;;;;;;;;;;5134090;27;20123;-69
2023/06/11 01:23:41;;;;;;;12.50;7.55;;;;;;;;;;5128926;27;20051;-69
2023/06/11 01:26:13;;;;;;;16.45;7.90;;;;;;;;;;5116339;27;20046;-69
2023/06/11 01:28:41;;;;;;;15.98;7.50;;;;;;;;;;5144823;27;20055;-69
2023/06/11 01:31:12;;;;;;;13.82;7.20;;;;;;;;;;5145181;27;20110;-69
2023/06/11 01:33:38;;;;;;;14.85;7.35;;;;;;;;;;5130216;27;20043;-69
2023/06/11 01:36:05;;;;;;;11.43;7.20;;;;;;;;;;5117326;27;20074;-69
2023/06/11 01:38:34;;;;;;;14.30;7.25;;;;;;;;;;5120547;27;20392;-69
2023/06/11 01:41:01;;;;;;;15.95;7.72;;;;;;;;;;5115671;27;20068;-69
2023/06/11 01:43:30;;;;;;;15.13;8.07;;;;;;;;;;5103372;27;20196;-69
2023/06/11 01:45:58;;;;;;;14.38;7.75;;;;;;;;;;5129304;27;20082;-69
2023/06/11 01:48:25;;;;;;;13.80;8.15;;;;;;;;;;5141713;27;20490;-69
2023/06/11 01:50:51;;;;;;;14.23;7.65;;;;;;;;;;5135898;27;20144;-69
2023/06/11 01:53:17;;;;;;;14.45;7.75;;;;;;;;;;5112777;27;20084;-69
2023/06/11 01:55:43;;;;;;;13.18;7.80;;;;;;;;;;5131816;27;20035;-69
2023/06/11 01:58:11;;;;;;;13.20;7.53;;;;;;;;;;5103689;27;20102;-69
2023/06/11 02:00:37;;;;;;;12.10;7.00;;;;;;;;;;5134075;27;20087;-69
2023/06/11 02:03:05;;;;;;;12.40;8.02;;;;;;;;;;5113207;27;20035;-69
2023/06/11 02:05:31;;;;;;;14.43;7.60;;;;;;;;;;5135250;27;20047;-69
2023/06/11 02:07:58;;;;;;;16.70;7.28;;;;;;;;;;5139683;27;20062;-69
2023/06/11 02:10:24;;;;;;;12.65;7.40;;;;;;;;;;5116744;27;20086;-69
2023/06/11 02:12:50;;;;;;;11.88;7.30;;;;;;;;;;5117504;27;20157;-69
2023/06/11 02:15:16;;;;;;;11.50;7.10;;;;;;;;;;5115982;27;20462;-69
2023/06/11 02:17:42;;;;;;;13.05;6.90;;;;;;;;;;5136261;27;20130;-69
2023/06/11 02:20:09;;;;;;;11.70;7.18;;;;;;;;;;5137336;27;20043;-69
2023/06/11 02:22:35;;;;;;;9.55;6.72;;;;;;;;;;5119178;27;20054;-69
2023/06/11 02:25:02;;;;;;;11.40;7.00;;;;;;;;;;5116506;27;20035;-69
2023/06/11 02:27:29;;;;;;;8.85;6.63;;;;;;;;;;5124614;27;20504;-69
2023/06/11 02:29:56;;;;;;;11.07;7.38;;;;;;;;;;5125158;27;20040;-69
2023/06/11 02:32:22;;;;;;;14.05;6.75;;;;;;;;;;5118273;27;20449;-69
2023/06/11 02:34:48;;;;;;;20.10;9.20;;;;;;;;;;5118765;27;20046;-69
2023/06/11 02:37:14;;;;;;;11.32;7.38;;;;;;;;;;5131818;27;20370;-69
2023/06/11 02:39:41;;;;;;;12.13;7.95;;;;;;;;;;5110070;27;20051;-69
2023/06/11 02:42:07;;;;;;;14.48;7.65;;;;;;;;;;5131851;27;20055;-69
2023/06/11 02:44:34;;;;;;;10.70;6.47;;;;;;;;;;5086494;27;20046;-69
2023/06/11 02:47:00;;;;;;;13.00;7.70;;;;;;;;;;5133291;27;20436;-69
2023/06/11 02:49:27;;;;;;;13.07;8.20;;;;;;;;;;5115838;27;20039;-69
2023/06/11 02:51:53;;;;;;;12.63;7.55;;;;;;;;;;5132633;27;20038;-69
2023/06/11 02:54:19;;;;;;;13.35;8.27;;;;;;;;;;5114194;27;20039;-69
2023/06/11 02:56:45;;;;;;;11.48;7.60;;;;;;;;;;5098747;27;20202;-69
2023/06/11 02:59:12;;;;;;;12.10;7.95;;;;;;;;;;5132195;27;20039;-69
2023/06/11 03:01:39;;;;;;;11.63;7.82;;;;;;;;;;5124601;27;20512;-69
2023/06/11 03:04:05;;;;;;;13.10;7.43;;;;;;;;;;5144377;27;20039;-69
2023/06/11 03:06:32;;;;;;;12.23;8.13;;;;;;;;;;5132453;27;20137;-69
2023/06/11 03:08:58;;;;;;;10.60;7.40;;;;;;;;;;5149585;27;20051;-69
2023/06/11 03:11:25;;;;;;;10.88;7.55;;;;;;;;;;5114059;27;20043;-69
2023/06/11 03:13:52;;;;;;;12.18;7.82;;;;;;;;;;5131791;27;20050;-69
2023/06/11 03:16:18;;;;;;;12.55;8.00;;;;;;;;;;5127545;27;20086;-69
2023/06/11 03:18:44;;;;;;;11.52;8.00;;;;;;;;;;5114824;27;20035;-69
2023/06/11 03:21:11;;;;;;;10.73;7.65;;;;;;;;;;5132493;27;20049;-69
2023/06/11 03:23:37;;;;;;;14.00;7.85;;;;;;;;;;5114846;27;20475;-69
2023/06/11 03:26:03;;;;;;;14.43;9.10;;;;;;;;;;5132397;27;20126;-69
2023/06/11 03:28:29;;;;;;;10.63;7.50;;;;;;;;;;5132908;27;20055;-69
2023/06/11 03:30:55;;;;;;;10.18;8.15;;;;;;;;;;5140818;27;20051;-69
2023/06/11 03:33:22;;;;;;;12.15;8.20;;;;;;;;;;5132259;27;20154;-69
2023/06/11 03:35:48;;;;;;;12.27;7.93;;;;;;;;;;5113660;27;20731;-69
2023/06/11 03:38:14;;;;;;;11.73;8.00;;;;;;;;;;5131990;27;20118;-69
2023/06/11 03:40:40;;;;;;;12.43;8.48;;;;;;;;;;5129432;27;20039;-69
2023/06/11 03:43:07;;;;;;;12.30;7.78;;;;;;;;;;5108598;27;20066;-69
2023/06/11 03:45:33;;;;;;;11.50;7.80;;;;;;;;;;5132034;27;20046;-69
2023/06/11 03:48:02;;;;;;;14.25;8.38;;;;;;;;;;5132269;27;20047;-69
2023/06/11 03:50:28;;;;;;;12.52;8.73;;;;;;;;;;5130360;27;20106;-69
2023/06/11 03:52:54;;;;;;;11.73;7.65;;;;;;;;;;5113285;27;20047;-69
2023/06/11 03:55:20;;;;;;;13.18;8.10;;;;;;;;;;5113240;27;20440;-69
2023/06/11 03:57:47;;;;;;;10.50;7.93;;;;;;;;;;5135234;27;20046;-69
2023/06/11 04:00:13;;;;;;;12.02;8.80;;;;;;;;;;5141277;27;20120;-69
2023/06/11 04:02:42;;;;;;;11.85;8.27;;;;;;;;;;5120940;27;20404;-69
2023/06/11 04:05:08;;;;;;;16.85;8.32;;;;;;;;;;5132757;27;20195;-69
2023/06/11 04:07:35;;;;;;;11.38;8.25;;;;;;;;;;5131938;27;20050;-69
2023/06/11 04:10:02;;;;;;;11.20;8.80;;;;;;;;;;5144249;27;20406;-69
2023/06/11 04:12:28;;;;;;;12.00;7.95;;;;;;;;;;5130481;27;20062;-69
2023/06/11 04:14:54;;;;;;;14.02;8.85;;;;;;;;;;5112744;28;20212;-69
2023/06/11 04:17:21;;;;;;;12.63;8.55;;;;;;;;;;5114358;27;20077;-69
2023/06/11 04:19:47;;;;;;;14.35;9.20;;;;;;;;;;5134879;27;20039;-69
2023/06/11 04:22:13;;;;;;;11.95;9.18;;;;;;;;;;5116983;27;20169;-69
2023/06/11 04:24:39;;;;;;;14.90;8.63;;;;;;;;;;5136705;27;20039;-69
2023/06/11 04:27:06;;;;;;;17.63;8.95;;;;;;;;;;5142976;27;20042;-69
2023/06/11 04:29:33;;;;;;;13.68;8.63;;;;;;;;;;5141238;27;20126;-69
2023/06/11 04:32:03;;;;;;;10.95;8.40;;;;;;;;;;5117670;27;20403;-69
2023/06/11 04:34:29;;;;;;;12.13;8.52;;;;;;;;;;5118028;27;20062;-69
2023/06/11 04:36:56;;;;;;;12.43;8.48;;;;;;;;;;5117465;27;20070;-69
2023/06/11 04:39:22;;;;;;;12.27;8.60;;;;;;;;;;5136783;27;20042;-69
2023/06/11 04:41:51;;;;;;;17.67;9.30;;;;;;;;;;5118513;27;20367;-69
2023/06/11 04:44:20;;;;;;;11.50;8.98;;;;;;;;;;5124328;27;20107;-69
2023/06/11 04:46:57;;;;;;;14.43;9.27;;;;;;;;;;5124883;27;20474;-69
2023/06/11 04:49:23;;;;;;;12.75;8.90;;;;;;;;;;5121995;27;20482;-69
2023/06/11 04:51:52;;;;;;;13.07;8.63;;;;;;;;;;5117029;27;20100;-69
2023/06/11 04:54:21;;;;;;;14.35;8.82;;;;;;;;;;5118032;27;20047;-69
2023/06/11 04:56:47;;;;;;;11.00;8.68;;;;;;;;;;5135545;27;20083;-69
2023/06/11 04:59:14;;;;;;;11.55;8.35;;;;;;;;;;5135168;27;20132;-69
2023/06/11 05:01:46;;;;;;;17.17;9.68;;;;;;;;;;5116371;27;20129;-68
2023/06/11 05:04:15;;;;;;;12.57;8.88;;;;;;;;;;5103355;27;20114;-69
2023/06/11 05:06:44;;;;;;;11.27;9.00;;;;;;;;;;5132882;27;20077;-69
2023/06/11 05:09:14;;;;;;;12.13;8.90;;;;;;;;;;5134928;27;20469;-69
2023/06/11 05:11:43;;;;;;;12.15;9.35;;;;;;;;;;5132486;27;20054;-69
2023/06/11 05:14:10;;;;;;;15.27;9.30;;;;;;;;;;5132596;27;20501;-70
2023/06/11 05:16:37;;;;;;;10.68;8.85;;;;;;;;;;5131050;27;20038;-70
2023/06/11 05:19:03;;;;;;;12.40;9.00;;;;;;;;;;5132851;27;20106;-70
2023/06/11 05:21:29;;;;;;;11.90;8.95;;;;;;;;;;5132239;27;20039;-70
2023/06/11 05:24:06;;;;;;;10.13;8.45;;;;;;;;;;5133144;27;20043;-70
2023/06/11 05:26:33;;;;;;;12.23;8.50;;;;;;;;;;5132431;27;20103;-70
2023/06/11 05:28:59;;;;;;;13.10;9.30;;;;;;;;;;5146672;27;20054;-70
2023/06/11 05:31:25;;;;;;;11.60;9.30;;;;;;;;;;5104248;27;20169;-66
2023/06/11 05:33:51;;;;;;;10.98;8.25;;;;;;;;;;5111600;27;20047;-69
2023/06/11 05:36:17;;;;;;;13.70;8.43;;;;;;;;;;5134491;27;20051;-69
2023/06/11 05:38:44;;;;;;;10.85;8.63;;;;;;;;;;5134808;27;20474;-67
2023/06/11 05:41:10;;;;;;;11.73;8.60;;;;;;;;;;5131452;27;20046;-66
2023/06/11 05:43:36;;;;;;;11.63;9.10;;;;;;;;;;5125429;27;20039;-66
2023/06/11 05:46:02;;;;;;;11.68;9.02;;;;;;;;;;5104139;27;20137;-66
2023/06/11 05:48:29;;;;;;;10.68;8.63;;;;;;;;;;5124100;27;20084;-66
2023/06/11 05:50:55;;;;;;;10.05;8.27;;;;;;;;;;5139088;27;20043;-66
2023/06/11 05:53:21;;;;;;;13.70;8.60;;;;;;;;;;5115061;27;20487;-66
2023/06/11 05:55:48;;;;;;;13.55;8.85;;;;;;;;;;5134915;27;20114;-66
2023/06/11 05:58:14;;;;;;;14.10;9.10;;;;;;;;;;5134469;27;20039;-69
2023/06/11 06:00:42;;;;;;;20.33;11.10;;;;;;;;;;5134125;27;20051;-69
2023/06/11 06:03:09;;;;;;;13.40;9.43;;;;;;;;;;5124341;27;20031;-69
2023/06/11 06:05:35;;;;;;;14.57;9.50;;;;;;;;;;5148902;27;20487;-68
2023/06/11 06:08:01;;;;;;;12.25;8.63;;;;;;;;;;5134152;27;20031;-69
2023/06/11 06:10:27;;;;;;;13.77;9.52;;;;;;;;;;5123627;27;20062;-69
2023/06/11 06:12:53;;;;;;;13.85;9.38;;;;;;;;;;5115150;27;20399;-69
2023/06/11 06:15:19;;;;;;;10.60;9.50;;;;;;;;;;5134171;27;20080;-69
2023/06/11 06:17:46;;;;;;;13.65;8.98;;;;;;;;;;5121331;27;20047;-69
2023/06/11 06:20:12;;;;;;;12.57;9.10;;;;;;;;;;5134670;27;20035;-69
2023/06/11 06:22:39;;;;;;;13.00;9.10;;;;;;;;;;5132997;27;20092;-69
2023/06/11 06:25:05;;;;;;;12.93;8.70;;;;;;;;;;5138562;27;20050;-69
2023/06/11 06:27:31;;;;;;;11.90;8.85;;;;;;;;;;5116049;27;20496;-69
2023/06/11 06:29:58;;;;;;;11.45;9.70;;;;;;;;;;5114914;27;20043;-69
2023/06/11 06:32:24;;;;;;;12.45;8.15;;;;;;;;;;5124648;27;20054;-68
2023/06/11 06:34:50;;;;;;;11.00;8.80;;;;;;;;;;5136223;27;20539;-69
2023/06/11 06:37:17;;;;;;;11.38;8.70;;;;;;;;;;5115171;27;20047;-69
2023/06/11 06:39:43;;;;;;;14.27;9.73;;;;;;;;;;5133143;27;20073;-69
2023/06/11 06:42:10;;;;;;;12.13;9.88;;;;;;;;;;5129120;27;20092;-69
2023/06/11 06:44:36;;;;;;;11.95;9.43;;;;;;;;;;5106100;27;20503;-69
2023/06/11 06:47:02;;;;;;;14.45;8.88;;;;;;;;;;5133879;27;20047;-69
2023/06/11 06:49:28;;;;;;;11.52;9.15;;;;;;;;;;5133325;27;20104;-69
2023/06/11 06:51:54;;;;;;;12.90;8.80;;;;;;;;;;5133369;27;20031;-69
2023/06/11 06:54:20;;;;;;;11.85;8.77;;;;;;;;;;5130454;27;20062;-64
2023/06/11 06:56:47;;;;;;;12.20;8.40;;;;;;;;;;5134787;27;20038;-64
2023/06/11 06:59:15;;;;;;;10.45;8.75;;;;;;;;;;5140639;27;20486;-69
2023/06/11 07:01:42;;;;;;;9.00;7.55;;;;;;;;;;5128752;27;20076;-69
2023/06/11 07:04:08;;;;;;;13.13;8.85;;;;;;;;;;5132826;27;20039;-68
2023/06/11 07:06:34;;;;;;;12.15;7.72;;;;;;;;;;5133628;27;20051;-69
2023/06/11 07:09:03;;;;;;;10.70;8.30;;;;;;;;;;5115331;27;20076;-69
2023/06/11 07:11:29;;;;;;;11.65;8.48;;;;;;;;;;5112513;27;20047;-69
2023/06/11 07:13:55;;;;;;;11.93;8.25;;;;;;;;;;5146232;27;20055;-69
2023/06/11 07:16:21;;;;;;;10.57;8.85;;;;;;;;;;5114751;27;20366;-69
2023/06/11 07:18:48;;;;;;;15.30;8.15;;;;;;;;;;5132574;27;20043;-69
2023/06/11 07:21:16;;;;;;;13.05;9.05;;;;;;;;;;5132654;27;20075;-69
2023/06/11 07:23:43;;;;;;;10.82;8.48;;;;;;;;;;5130945;27;20043;-69
2023/06/11 07:26:13;;;;;;;9.80;7.30;;;;;;;;;;5128023;27;20482;-69
2023/06/11 07:28:40;;;;;;;12.85;8.07;;;;;;;;;;5132954;27;20057;-69
2023/06/11 07:31:06;;;;;;;9.25;7.47;;;;;;;;;;5131005;27;20475;-69
2023/06/11 07:33:32;;;;;;;10.60;8.88;;;;;;;;;;5126378;27;20496;-68
2023/06/11 07:35:59;;;;;;;12.10;8.05;;;;;;;;;;5131540;27;20393;-68
2023/06/11 07:38:25;;;;;;;9.80;8.43;;;;;;;;;;5132289;27;20039;-69
2023/06/11 07:40:52;;;;;;;9.50;7.72;;;;;;;;;;5116405;27;20050;-69
2023/06/11 07:43:18;;;;;;;11.82;7.35;;;;;;;;;;5122415;27;20053;-69
2023/06/11 07:45:44;;;;;;;11.88;8.80;;;;;;;;;;5115700;27;20123;-69
2023/06/11 07:48:10;;;;;;;10.25;8.50;;;;;;;;;;5119123;27;20062;-69
2023/06/11 07:50:37;;;;;;;9.25;8.02;;;;;;;;;;5141136;27;20392;-69
2023/06/11 07:53:04;;;;;;;10.90;8.52;;;;;;;;;;5141121;27;20036;-69
2023/06/11 07:55:30;;;;;;;9.93;7.55;;;;;;;;;;5117517;27;20042;-69
2023/06/11 07:57:56;;;;;;;10.23;8.02;;;;;;;;;;5120500;27;20047;-69
2023/06/11 08:00:22;;;;;;;12.98;8.38;;;;;;;;;;5117059;27;20051;-69
2023/06/11 08:02:49;;;;;;;12.90;8.50;;;;;;;;;;5126462;27;20051;-69
2023/06/11 08:05:17;;;;;;;11.15;7.82;;;;;;;;;;5139684;27;20051;-69
2023/06/11 08:07:47;;;;;;;13.50;8.07;;;;;;;;;;5118788;27;20122;-69
2023/06/11 08:10:13;;;;;;;16.70;7.68;;;;;;;;;;5135988;27;20117;-69
2023/06/11 08:12:40;;;;;;;11.88;7.95;;;;;;;;;;5123340;27;20035;-69
2023/06/11 08:15:07;;;;;;;10.18;7.50;;;;;;;;;;5141814;27;20043;-69
2023/06/11 08:17:33;;;;;;;13.50;8.40;;;;;;;;;;5131744;27;20490;-69
2023/06/11 08:20:00;;;;;;;11.80;8.43;;;;;;;;;;5130208;27;20050;-69
2023/06/11 08:22:26;;;;;;;9.70;7.57;;;;;;;;;;5142058;27;20083;-69
2023/06/11 08:24:52;;;;;;;9.93;7.72;;;;;;;;;;5134620;27;20047;-69
2023/06/11 08:27:18;;;;;;;13.13;7.35;;;;;;;;;;5132484;28;20059;-69
2023/06/11 08:29:44;;;;;;;12.02;7.35;;;;;;;;;;5111146;27;20478;-69
2023/06/11 08:32:11;;;;;;;11.40;7.95;;;;;;;;;;5132402;28;20054;-69
2023/06/11 08:34:37;;;;;;;11.10;8.57;;;;;;;;;;5132282;28;20072;-69
2023/06/11 08:37:03;;;;;;;14.18;8.00;;;;;;;;;;5131598;28;20084;-69
2023/06/11 08:39:30;;;;;;;10.52;7.90;;;;;;;;;;5130865;27;20090;-69
2023/06/11 08:41:56;;;;;;;12.57;7.32;;;;;;;;;;5120394;28;20050;-69
2023/06/11 08:44:22;;;;;;;12.50;7.75;;;;;;;;;;5096007;27;20043;-69
2023/06/11 08:46:49;;;;;;;10.25;7.40;;;;;;;;;;5117176;27;20042;-69
2023/06/11 08:49:22;;;;;;;9.48;7.30;;;;;;;;;;5114193;28;20579;-69
2023/06/11 08:51:49;;;;;;;9.02;7.13;;;;;;;;;;5131368;27;20387;-69
2023/06/11 08:54:16;;;;;;;10.32;7.32;;;;;;;;;;5114385;27;20115;-69
2023/06/11 08:56:43;;;;;;;10.57;8.10;;;;;;;;;;5137752;27;20073;-69
2023/06/11 08:59:09;;;;;;;9.35;7.28;;;;;;;;;;5120550;27;20493;-69
2023/06/11 09:01:35;;;;;;;9.98;7.20;;;;;;;;;;5107322;27;20047;-70
2023/06/11 09:04:02;;;;;;;10.57;6.78;;;;;;;;;;5127956;27;20039;-69
2023/06/11 09:06:29;;;;;;;13.07;7.68;;;;;;;;;;5140919;27;20051;-69
2023/06/11 09:08:59;;;;;;;8.43;6.68;;;;;;;;;;5142813;27;20042;-69
2023/06/11 09:11:33;;;;;;;10.95;7.03;;;;;;;;;;5115317;27;20533;-69
2023/06/11 09:13:59;;;;;;;9.02;6.80;;;;;;;;;;5143723;27;20065;-69
2023/06/11 09:16:25;;;;;;;8.02;6.47;;;;;;;;;;5112106;27;20118;-69
2023/06/11 09:18:51;;;;;;;13.73;6.75;;;;;;;;;;5134782;27;20047;-69
2023/06/11 09:21:18;;;;;;;8.25;6.78;;;;;;;;;;5133906;27;20035;-69
2023/06/11 09:23:46;;;;;;;9.77;6.70;;;;;;;;;;5141539;27;20444;-69
2023/06/11 09:26:17;;;;;;;8.82;7.35;;;;;;;;;;5134541;27;20653;-69
2023/06/11 09:28:43;;;;;;;9.60;6.68;;;;;;;;;;5134747;27;20134;-69
2023/06/11 09:31:09;;;;;;;10.38;7.00;;;;;;;;;;5120081;27;20096;-69
2023/06/11 09:33:37;;;;;;;9.85;7.45;;;;;;;;;;5114998;27;20043;-69
2023/06/11 09:36:03;;;;;;;12.63;6.88;;;;;;;;;;5141978;27;20080;-69
2023/06/11 09:38:34;;;;;;;8.50;6.38;;;;;;;;;;5140212;27;20047;-69
2023/06/11 09:41:00;;;;;;;9.68;7.25;;;;;;;;;;5123090;27;20051;-69
2023/06/11 09:43:27;;;;;;;13.15;6.10;;;;;;;;;;5125362;27;20051;-69
2023/06/11 09:46:00;;;;;;;8.77;6.47;;;;;;;;;;5130107;27;20051;-69
2023/06/11 09:48:26;;;;;;;;;;;;;;;;;;5117886;27;20061;-69
2023/06/11 09:50:53;;;;;;;10.00;7.32;;;;;;;;;;5131229;27;20351;-68
2023/06/11 09:53:20;;;;;;;9.02;6.55;;;;;;;;;;5129593;27;20066;-70
2023/06/11 09:55:49;;;;;;;9.57;6.80;;;;;;;;;;5113779;27;20038;-74
2023/06/11 09:58:22;;;;;;;8.73;6.00;;;;;;;;;;5128237;27;20074;-70
2023/06/11 10:00:58;;;;;;;9.13;5.78;;;;;;;;;;5112950;27;20387;-71
2023/06/11 10:03:24;;;;;;;10.57;6.57;;;;;;;;;;5118127;27;20063;-71
2023/06/11 10:05:51;;;;;;;6.70;5.80;;;;;;;;;;5119504;27;20095;-71
2023/06/11 10:08:20;;;;;;;9.55;6.38;;;;;;;;;;5115732;27;20084;-71
2023/06/11 10:10:48;;;;;;;8.15;5.88;;;;;;;;;;5139291;27;20103;-71
2023/06/11 10:13:27;;;;;;;6.75;5.22;;;;;;;;;;5103056;27;20068;-71
2023/06/11 10:15:54;;;;;;;6.32;5.47;;;;;;;;;;5115535;28;20360;-71
2023/06/11 10:18:25;;;;;;;9.98;6.20;;;;;;;;;;5123439;27;20126;-71
2023/06/11 10:20:52;;;;;;;13.60;7.47;;;;;;;;;;5125408;27;20038;-70
2023/06/11 10:23:21;;;;;;;8.90;6.25;;;;;;;;;;5129185;27;20103;-70
2023/06/11 10:25:54;;;;;;;7.75;4.82;;;;;;;;;;5141634;27;20095;-71
2023/06/11 10:28:35;;;;;;;7.20;5.53;;;;;;;;;;5130241;27;20504;-71
2023/06/11 10:31:01;;;;;;;8.05;5.38;;;;;;;;;;5111075;27;20171;-71
2023/06/11 10:33:44;;;;;;;6.72;5.32;;;;;;;;;;5133242;27;20059;-71
2023/06/11 10:36:21;;;;;;;7.78;5.18;;;;;;;;;;5134779;27;20043;-72
2023/06/11 10:38:47;;;;;;;6.25;5.18;;;;;;;;;;5116037;27;20047;-72
2023/06/11 10:41:14;;;;;;;6.43;5.22;;;;;;;;;;5115121;27;20386;-71
2023/06/11 10:43:40;;;;;;;5.97;4.65;;;;;;;;;;5116789;27;20040;-71
2023/06/11 10:46:11;;;;;;;7.00;4.78;;;;;;;;;;5132524;27;20035;-71
2023/06/11 10:48:37;;;;;;;7.30;4.95;;;;;;;;;;5133329;27;20043;-71
2023/06/11 10:51:07;;;;;;;5.82;4.45;;;;;;;;;;5131635;27;20557;-71
2023/06/11 10:53:39;;;;;;;6.68;4.70;;;;;;;;;;5112069;27;20043;-72
2023/06/11 10:56:06;;;;;;;6.72;5.07;;;;;;;;;;5133106;27;20035;-72
2023/06/11 10:58:33;;;;;;;6.38;4.65;;;;;;;;;;5134087;27;20058;-72
2023/06/11 11:01:00;;;;;;;6.07;4.75;;;;;;;;;;5128902;27;20464;-72
2023/06/11 11:03:30;;;;;;;9.57;4.38;;;;;;;;;;5112046;27;20444;-71
2023/06/11 11:05:57;;;;;;;7.03;4.65;;;;;;;;;;5131513;27;20075;-72
2023/06/11 11:08:23;;;;;;;6.25;4.40;;;;;;;;;;5100042;27;20127;-71
2023/06/11 11:10:55;;;;;;;8.00;4.35;;;;;;;;;;5132219;27;20081;-72
2023/06/11 11:13:21;;;;;;;8.77;4.23;;;;;;;;;;5131595;27;20067;-72
2023/06/11 11:15:47;;;;;;;8.18;4.15;;;;;;;;;;5133396;27;20042;-72
2023/06/11 11:18:13;;;;;;;7.47;3.65;;;;;;;;;;5113033;27;20057;-72
2023/06/11 11:20:40;;;;;;;4.75;3.72;;;;;;;;;;5114896;27;20543;-71
2023/06/11 11:23:06;;;;;;;6.30;3.70;;;;;;;;;;5132774;27;20071;-72
2023/06/11 11:25:33;;;;;;;6.38;3.75;;;;;;;;;;5132368;27;20114;-71
2023/06/11 11:27:59;;;;;;;4.47;3.40;;;;;;;;;;5121059;27;20343;-71
2023/06/11 11:30:28;;;;;;;5.45;3.88;;;;;;;;;;5137211;27;20078;-72
2023/06/11 11:32:54;;;;;;;5.43;3.70;;;;;;;;;;5112677;27;20047;-72
2023/06/11 11:35:21;;;;;;;6.43;3.47;;;;;;;;;;5111582;27;20122;-77
2023/06/11 11:37:51;;;;;;;6.25;4.03;;;;;;;;;;5109713;27;20055;-72
2023/06/11 11:40:21;;;;;;;5.72;3.67;;;;;;;;;;5130712;27;20043;-72
2023/06/11 11:42:55;;;;;;;5.82;3.40;;;;;;;;;;5125246;27;20119;-68
2023/06/11 11:45:23;;;;;;;5.10;3.63;;;;;;;;;;5128412;27;20047;-72
2023/06/11 11:47:52;;;;;;;6.25;3.72;;;;;;;;;;5130432;27;20043;-72
2023/06/11 11:50:21;;;;;;;5.60;3.58;;;;;;;;;;5113732;27;20049;-72
2023/06/11 11:53:02;;;;;;;7.57;3.50;;;;;;;;;;5133026;27;20363;-72
2023/06/11 11:55:28;;;;;;;6.88;3.45;;;;;;;;;;5138251;27;20047;-72
2023/06/11 11:58:11;;;;;;;6.72;3.35;;;;;;;;;;5133046;27;20123;-72
2023/06/11 12:00:38;;;;;;;9.95;3.30;;;;;;;;;;5132787;27;20043;-72
2023/06/11 12:03:11;;;;;;;5.13;3.58;;;;;;;;;;5137720;27;20035;-72
2023/06/11 12:05:37;;;;;;;7.25;3.30;;;;;;;;;;5114511;27;20054;-71
2023/06/11 12:08:04;;;;;;;6.93;3.88;;;;;;;;;;5131138;27;20031;-72
2023/06/11 12:10:31;;;;;;;6.03;3.63;;;;;;;;;;5132855;28;20077;-70
2023/06/11 12:12:58;;;;;;;5.95;3.70;;;;;;;;;;5113324;28;20069;-71
2023/06/11 12:15:24;;;;;;;7.47;3.97;;;;;;;;;;5139232;27;20065;-70
2023/06/11 12:17:51;;;;;;;4.72;3.67;;;;;;;;;;5143724;27;20063;-70
2023/06/11 12:20:18;;;;;;;5.25;3.20;;;;;;;;;;5131043;27;20050;-70
2023/06/11 12:22:44;;;;;;;6.43;3.70;;;;;;;;;;5129971;27;20046;-70
2023/06/11 12:25:10;;;;;;;5.13;3.17;;;;;;;;;;5120464;28;20486;-71
2023/06/11 12:27:38;;;;;;;6.50;3.58;;;;;;;;;;5128687;27;20051;-70
2023/06/11 12:30:04;;;;;;;4.95;3.58;;;;;;;;;;5110615;28;20048;-68
2023/06/11 12:32:31;;;;;;;6.72;3.67;;;;;;;;;;5096463;28;20044;-70
2023/06/11 12:34:57;;;;;;;5.72;4.13;;;;;;;;;;5087065;28;20067;-71
2023/06/11 12:37:24;;;;;;;6.65;3.53;;;;;;;;;;5101105;28;20127;-70
2023/06/11 12:39:51;;;;;;;5.00;3.60;;;;;;;;;;5105920;27;20047;-71
2023/06/11 12:42:20;;;;;;;5.38;3.55;;;;;;;;;;5093564;28;20086;-70
2023/06/11 12:44:47;;;;;;;5.03;3.75;;;;;;;;;;5112054;27;20386;-71
2023/06/11 12:47:14;;;;;;;6.00;3.60;;;;;;;;;;5118176;27;20039;-71
2023/06/11 12:49:40;;;;;;;6.20;3.67;;;;;;;;;;5097015;28;20372;-70
2023/06/11 12:52:08;;;;;;;5.95;3.95;;;;;;;;;;5114560;28;20386;-70
2023/06/11 12:54:34;;;;;;;5.50;3.50;;;;;;;;;;5115398;27;20080;-70
2023/06/11 12:57:00;;;;;;;5.63;3.22;;;;;;;;;;5118395;27;20035;-70
2023/06/11 12:59:26;;;;;;;5.90;3.60;;;;;;;;;;5116423;27;20035;-70
2023/06/11 13:01:53;;;;;;;5.32;3.88;;;;;;;;;;5112672;27;20043;-70
2023/06/11 13:04:19;;;;;;;4.85;3.63;;;;;;;;;;5079601;28;20055;-70
2023/06/11 13:06:45;;;;;;;5.57;3.78;;;;;;;;;;5092909;28;20055;-70
2023/06/11 13:09:12;;;;;;;5.43;3.45;;;;;;;;;;5090996;28;20035;-67
2023/06/11 13:11:38;;;;;;;10.15;3.90;;;;;;;;;;5088508;28;20052;-67
2023/06/11 13:14:05;;;;;;;5.30;3.53;;;;;;;;;;5089626;28;20479;-67
2023/06/11 13:16:31;;;;;;;5.10;3.67;;;;;;;;;;5098630;27;20588;-67
2023/06/11 13:18:59;;;;;;;8.00;3.72;;;;;;;;;;5117923;27;20043;-67
2023/06/11 13:21:26;;;;;;;4.63;3.58;;;;;;;;;;5100710;28;20044;-67
2023/06/11 13:23:52;;;;;;;5.10;3.60;;;;;;;;;;5114540;27;20039;-67
2023/06/11 13:26:18;;;;;;;8.25;3.60;;;;;;;;;;5114908;28;20051;-67
2023/06/11 13:28:45;;;;;;;5.25;3.58;;;;;;;;;;5124997;27;20135;-67
2023/06/11 13:31:11;;;;;;;4.90;3.40;;;;;;;;;;5120113;27;20043;-67
2023/06/11 13:33:38;;;;;;;6.32;3.60;;;;;;;;;;5134556;27;20046;-67
2023/06/11 13:36:04;;;;;;;5.47;3.30;;;;;;;;;;5117064;27;20474;-70
2023/06/11 13:38:30;;;;;;;5.72;3.78;;;;;;;;;;5115668;27;20051;-70
2023/06/11 13:40:56;;;;;;;10.10;3.95;;;;;;;;;;5132532;27;20050;-70
2023/06/11 13:43:23;;;;;;;6.72;4.00;;;;;;;;;;5135160;27;20035;-70
2023/06/11 13:45:49;;;;;;;7.57;3.60;;;;;;;;;;5116120;27;20043;-70
2023/06/11 13:48:18;;;;;;;8.50;3.60;;;;;;;;;;5135642;27;20448;-71
2023/06/11 13:50:46;;;;;;;4.63;3.03;;;;;;;;;;5134647;27;20039;-70
2023/06/11 13:53:12;;;;;;;6.30;3.95;;;;;;;;;;5131151;27;20042;-71
2023/06/11 13:55:38;;;;;;;7.30;3.53;;;;;;;;;;5136132;27;20085;-70
2023/06/11 13:58:05;;;;;;;6.93;3.60;;;;;;;;;;5116973;27;20065;-70
2023/06/11 14:00:31;;;;;;;4.53;3.25;;;;;;;;;;5115659;27;20043;-70
2023/06/11 14:02:57;;;;;;;5.82;3.90;;;;;;;;;;5125046;27;20347;-70
2023/06/11 14:05:25;;;;;;;5.90;3.67;;;;;;;;;;5137385;27;20043;-71
2023/06/11 14:07:52;;;;;;;8.07;3.53;;;;;;;;;;5134686;27;20126;-70
2023/06/11 14:10:18;;;;;;;6.18;3.50;;;;;;;;;;5133677;27;20458;-71
2023/06/11 14:12:44;;;;;;;7.80;3.90;;;;;;;;;;5107211;27;20048;-70
2023/06/11 14:15:11;;;;;;;5.93;3.70;;;;;;;;;;5116310;27;20050;-70
2023/06/11 14:17:39;;;;;;;6.10;3.55;;;;;;;;;;5127342;27;20051;-71
2023/06/11 14:20:06;;;;;;;8.98;4.07;;;;;;;;;;5112539;27;20069;-69
2023/06/11 14:22:32;;;;;;;5.50;3.65;;;;;;;;;;5134945;27;20509;-71
2023/06/11 14:24:59;;;;;;;7.30;3.90;;;;;;;;;;5135445;27;20073;-70
2023/06/11 14:27:25;;;;;;;6.82;3.90;;;;;;;;;;5120407;27;20873;-70
2023/06/11 14:29:51;;;;;;;5.97;4.00;;;;;;;;;;5125842;27;20091;-71
2023/06/11 14:32:18;;;;;;;6.25;3.80;;;;;;;;;;5118766;27;20409;-70
2023/06/11 14:34:44;;;;;;;5.40;3.63;;;;;;;;;;5128094;27;20047;-70
2023/06/11 14:37:11;;;;;;;6.22;3.70;;;;;;;;;;5130034;27;20394;-70